createdAt,value
2018-12-29T00:01:13.499Z,74.78
2018-12-29T00:04:02.636Z,74.74
2018-12-29T00:06:51.791Z,74.37
2018-12-29T00:09:41.351Z,74.36
2018-12-29T00:12:30.470Z,74.44
2018-12-29T00:15:19.590Z,74.47
2018-12-29T00:18:09.101Z,74.43
2018-12-29T00:20:58.216Z,74.58
2018-12-29T00:23:47.318Z,74.86
2018-12-29T00:26:36.457Z,75.10
2018-12-29T00:29:25.938Z,75.02
2018-12-29T00:32:15.056Z,75.18
2018-12-29T00:35:04.323Z,75.28
2018-12-29T00:37:53.481Z,75.37
2018-12-29T00:40:42.915Z,75.39
2018-12-29T00:43:32.619Z,75.29
2018-12-29T00:46:22.062Z,75.44
2018-12-29T00:49:11.245Z,75.58
2018-12-29T00:52:19.927Z,75.57
2018-12-29T00:55:09.076Z,75.44
2018-12-29T00:57:58.250Z,75.50
2018-12-29T01:03:55.695Z,75.64
2018-12-29T01:06:45.366Z,75.45
2018-12-29T01:09:35.117Z,75.65
2018-12-29T01:12:24.232Z,75.93
2018-12-29T01:15:13.675Z,76.15
2018-12-29T01:18:03.137Z,76.68
2018-12-29T01:20:52.320Z,77.08
2018-12-29T01:23:41.417Z,77.21
2018-12-29T01:26:30.589Z,77.41
2018-12-29T01:29:19.711Z,77.39
2018-12-29T01:32:09.205Z,77.50
2018-12-29T01:34:58.317Z,77.64
2018-12-29T01:37:47.739Z,77.69
2018-12-29T01:40:37.195Z,77.62
2018-12-29T01:43:26.955Z,77.57
2018-12-29T01:46:16.663Z,77.34
2018-12-29T01:48:57.150Z,77.22
2018-12-29T01:51:47.061Z,77.17
2018-12-29T01:54:36.454Z,77.32
2018-12-29T01:57:25.820Z,77.45
2018-12-29T02:00:15.060Z,77.40
2018-12-29T02:03:04.453Z,77.32
2018-12-29T02:05:53.573Z,77.34
2018-12-29T02:08:43.016Z,77.47
2018-12-29T02:11:32.149Z,77.30
2018-12-29T02:14:21.784Z,77.42
2018-12-29T02:17:11.146Z,77.56
2018-12-29T02:20:20.369Z,77.55
2018-12-29T02:23:09.486Z,77.46
2018-12-29T02:25:58.681Z,77.35
2018-12-29T02:28:48.497Z,77.23
2018-12-29T02:31:37.892Z,77.17
2018-12-29T02:34:27.058Z,77.01
2018-12-29T02:37:16.170Z,76.85
2018-12-29T02:43:13.942Z,76.24
2018-12-29T02:46:03.345Z,76.22
2018-12-29T02:48:45.550Z,76.22
2018-12-29T02:51:34.919Z,76.27
2018-12-29T02:54:24.955Z,76.30
2018-12-29T02:57:14.345Z,76.42
2018-12-29T03:00:03.492Z,76.54
2018-12-29T03:02:52.665Z,76.57
2018-12-29T03:05:41.791Z,76.58
2018-12-29T03:08:30.945Z,76.47
2018-12-29T03:11:20.451Z,76.61
2018-12-29T03:14:10.162Z,76.81
2018-12-29T03:16:59.662Z,76.80
2018-12-29T03:19:49.257Z,77.03
2018-12-29T03:22:38.706Z,77.11
2018-12-29T03:25:28.089Z,77.13
2018-12-29T03:28:17.858Z,77.11
2018-12-29T03:31:07.246Z,77.12
2018-12-29T03:33:56.632Z,77.00
2018-12-29T03:36:45.738Z,77.00
2018-12-29T03:39:35.439Z,77.10
2018-12-29T03:42:24.946Z,77.17
2018-12-29T03:48:01.193Z,77.13
2018-12-29T03:50:50.313Z,77.07
2018-12-29T03:53:39.738Z,77.23
2018-12-29T03:56:29.205Z,77.53
2018-12-29T03:59:19.183Z,77.49
2018-12-29T04:02:08.701Z,77.70
2018-12-29T04:04:57.825Z,77.63
2018-12-29T04:07:46.982Z,77.76
2018-12-29T04:10:36.346Z,77.63
2018-12-29T04:13:25.469Z,77.70
2018-12-29T04:16:15.223Z,77.65
2018-12-29T04:19:04.572Z,77.65
2018-12-29T04:21:53.734Z,77.61
2018-12-29T04:24:43.448Z,77.56
2018-12-29T04:27:52.385Z,77.49
2018-12-29T04:30:41.531Z,77.29
2018-12-29T04:33:30.652Z,77.34
2018-12-29T04:36:19.823Z,77.57
2018-12-29T04:39:08.949Z,77.64
2018-12-29T04:41:58.097Z,77.58
2018-12-29T04:44:47.568Z,77.50
2018-12-29T04:47:36.694Z,77.30
2018-12-29T04:50:18.220Z,77.25
2018-12-29T04:53:07.734Z,77.21
2018-12-29T04:55:57.208Z,77.15
2018-12-29T04:58:46.614Z,77.03
2018-12-29T05:01:36.318Z,77.00
2018-12-29T05:04:25.831Z,76.96
2018-12-29T05:07:15.267Z,76.96
2018-12-29T05:10:11.432Z,76.91
2018-12-29T05:13:00.869Z,77.00
2018-12-29T05:15:50.661Z,77.11
2018-12-29T05:18:39.776Z,77.06
2018-12-29T05:21:29.188Z,76.93
2018-12-29T05:24:18.674Z,76.90
2018-12-29T05:27:07.780Z,76.71
2018-12-29T05:29:57.206Z,76.64
2018-12-29T05:32:46.561Z,76.82
2018-12-29T05:35:36.037Z,76.85
2018-12-29T05:38:25.528Z,76.85
2018-12-29T05:41:14.685Z,76.68
2018-12-29T05:44:03.841Z,76.71
2018-12-29T05:49:48.327Z,76.77
2018-12-29T05:52:37.475Z,77.02
2018-12-29T05:55:46.117Z,76.98
2018-12-29T05:58:54.757Z,76.64
2018-12-29T06:01:44.528Z,76.51
2018-12-29T06:04:33.673Z,76.56
2018-12-29T06:07:22.857Z,76.54
2018-12-29T06:10:11.970Z,76.45
2018-12-29T06:13:01.370Z,76.62
2018-12-29T06:15:51.176Z,76.75
2018-12-29T06:18:40.320Z,76.80
2018-12-29T06:21:29.455Z,76.83
2018-12-29T06:24:18.683Z,76.90
2018-12-29T06:27:07.809Z,76.94
2018-12-29T06:29:56.951Z,76.94
2018-12-29T06:32:46.083Z,76.81
2018-12-29T06:38:30.316Z,76.64
2018-12-29T06:41:19.821Z,76.66
2018-12-29T06:44:09.578Z,76.59
2018-12-29T06:46:58.687Z,76.65
2018-12-29T06:49:40.872Z,76.63
2018-12-29T06:52:29.999Z,76.47
2018-12-29T06:55:19.115Z,76.41
2018-12-29T06:58:08.239Z,76.50
2018-12-29T07:00:57.629Z,76.58
2018-12-29T07:03:47.410Z,76.58
2018-12-29T07:06:36.548Z,76.61
2018-12-29T07:09:26.258Z,76.63
2018-12-29T07:12:35.174Z,76.58
2018-12-29T07:15:24.304Z,76.35
2018-12-29T07:18:13.722Z,76.20
2018-12-29T07:24:11.411Z,76.18
2018-12-29T07:30:08.950Z,76.07
2018-12-29T07:32:58.354Z,76.16
2018-12-29T07:35:47.838Z,76.18
2018-12-29T07:41:45.023Z,76.08
2018-12-29T07:44:34.669Z,76.09
2018-12-29T07:47:24.047Z,76.05
2018-12-29T07:50:06.189Z,76.14
2018-12-29T07:52:55.553Z,76.18
2018-12-29T07:55:44.989Z,76.14
2018-12-29T07:58:34.112Z,75.97
2018-12-29T08:01:23.238Z,75.85
2018-12-29T08:04:13.066Z,75.90
2018-12-29T08:10:10.287Z,75.48
2018-12-29T08:12:59.650Z,75.31
2018-12-29T08:15:48.772Z,75.37
2018-12-29T08:18:38.180Z,75.29
2018-12-29T08:21:27.556Z,75.10
2018-12-29T08:24:16.681Z,75.07
2018-12-29T08:27:06.118Z,75.32
2018-12-29T08:29:55.514Z,74.96
2018-12-29T08:32:44.946Z,75.57
2018-12-29T08:35:34.076Z,75.84
2018-12-29T08:38:23.192Z,75.99
2018-12-29T08:41:12.311Z,76.03
2018-12-29T08:44:01.891Z,75.48
2018-12-29T08:46:51.292Z,75.33
2018-12-29T08:49:21.848Z,74.74
2018-12-29T08:51:51.758Z,74.59
2018-12-29T08:54:21.884Z,74.04
2018-12-29T08:56:51.789Z,74.21
2018-12-29T08:59:21.934Z,74.16
2018-12-29T09:01:52.180Z,73.95
2018-12-29T09:04:22.431Z,73.66
2018-12-29T09:06:52.325Z,73.34
2018-12-29T09:09:22.222Z,73.47
2018-12-29T09:11:55.060Z,73.05
2018-12-29T09:14:25.562Z,72.95
2018-12-29T09:16:55.512Z,73.35
2018-12-29T09:19:27.386Z,72.78
2018-12-29T09:21:57.876Z,72.27
2018-12-29T09:24:28.087Z,71.70
2018-12-29T09:26:57.975Z,71.60
2018-12-29T09:29:28.714Z,71.81
2018-12-29T09:31:58.965Z,72.45
2018-12-29T09:34:29.158Z,72.04
2018-12-29T09:36:59.053Z,72.11
2018-12-29T09:39:29.235Z,72.29
2018-12-29T09:41:59.160Z,72.69
2018-12-29T09:44:29.299Z,72.70
2018-12-29T09:46:59.769Z,72.99
2018-12-29T09:49:30.322Z,73.02
2018-12-29T09:52:00.192Z,72.61
2018-12-29T09:54:30.097Z,71.39
2018-12-29T09:57:00.663Z,70.84
2018-12-29T09:59:30.884Z,70.19
2018-12-29T10:02:01.088Z,70.26
2018-12-29T10:04:31.223Z,71.02
2018-12-29T10:07:01.189Z,70.93
2018-12-29T10:09:31.711Z,70.83
2018-12-29T10:12:01.601Z,70.02
2018-12-29T10:14:31.823Z,71.27
2018-12-29T10:17:02.024Z,72.44
2018-12-29T10:19:32.568Z,73.03
2018-12-29T10:22:02.819Z,73.60
2018-12-29T10:24:33.522Z,74.11
2018-12-29T10:27:03.438Z,74.66
2018-12-29T10:29:33.994Z,74.84
2018-12-29T10:32:04.079Z,74.27
2018-12-29T10:34:33.970Z,74.35
2018-12-29T10:37:04.212Z,74.68
2018-12-29T10:39:34.073Z,74.34
2018-12-29T10:42:04.234Z,74.32
2018-12-29T10:44:34.153Z,73.24
2018-12-29T10:47:04.589Z,72.86
2018-12-29T10:49:34.492Z,73.54
2018-12-29T10:52:16.913Z,72.77
2018-12-29T10:55:06.167Z,73.07
2018-12-29T10:57:36.073Z,73.14
2018-12-29T11:00:08.135Z,73.35
2018-12-29T11:02:38.387Z,73.33
2018-12-29T11:05:09.135Z,73.14
2018-12-29T11:07:39.337Z,72.95
2018-12-29T11:10:09.320Z,71.55
2018-12-29T11:12:39.179Z,71.59
2018-12-29T11:15:09.120Z,70.87
2018-12-29T11:17:42.479Z,70.17
2018-12-29T11:20:11.588Z,70.29
2018-12-29T11:22:41.827Z,70.15
2018-12-29T11:25:12.668Z,70.07
2018-12-29T11:27:42.574Z,70.34
2018-12-29T11:30:12.468Z,70.77
2018-12-29T11:32:42.780Z,71.00
2018-12-29T11:35:12.916Z,69.99
2018-12-29T11:37:44.100Z,69.71
2018-12-29T11:40:14.037Z,69.42
2018-12-29T11:42:44.288Z,69.77
2018-12-29T11:45:14.543Z,69.54
2018-12-29T11:47:49.811Z,69.43
2018-12-29T11:50:16.749Z,69.81
2018-12-29T11:52:46.922Z,68.97
2018-12-29T11:55:17.470Z,69.61
2018-12-29T11:57:47.673Z,69.38
2018-12-29T12:00:17.943Z,69.14
2018-12-29T12:02:47.835Z,68.94
2018-12-29T12:05:17.776Z,68.03
2018-12-29T12:07:48.449Z,67.65
2018-12-29T12:10:18.339Z,67.62
2018-12-29T12:12:48.605Z,67.63
2018-12-29T12:15:18.484Z,67.55
2018-12-29T12:17:48.499Z,67.53
2018-12-29T12:20:18.735Z,67.08
2018-12-29T12:22:49.699Z,67.07
2018-12-29T12:25:19.852Z,67.44
2018-12-29T12:27:50.386Z,67.06
2018-12-29T12:30:20.564Z,67.22
2018-12-29T12:32:50.978Z,66.86
2018-12-29T12:35:21.314Z,66.73
2018-12-29T12:37:51.762Z,66.22
2018-12-29T12:40:21.687Z,66.09
2018-12-29T12:42:52.351Z,66.45
2018-12-29T12:45:22.597Z,66.35
2018-12-29T12:47:52.826Z,66.77
2018-12-29T12:50:23.050Z,67.00
2018-12-29T12:52:53.167Z,66.76
2018-12-29T12:55:23.466Z,66.66
2018-12-29T12:57:53.522Z,66.61
2018-12-29T13:00:23.942Z,67.10
2018-12-29T13:02:54.460Z,66.76
2018-12-29T13:05:24.359Z,66.73
2018-12-29T13:07:54.518Z,66.62
2018-12-29T13:10:25.056Z,66.64
2018-12-29T13:12:54.918Z,66.75
2018-12-29T13:15:25.024Z,68.16
2018-12-29T13:17:55.154Z,67.73
2018-12-29T13:20:25.364Z,66.21
2018-12-29T13:22:55.593Z,65.54
2018-12-29T13:25:26.166Z,66.60
2018-12-29T13:27:57.025Z,67.39
2018-12-29T13:30:27.525Z,67.36
2018-12-29T13:32:57.483Z,67.90
2018-12-29T13:35:27.775Z,67.65
2018-12-29T13:37:58.043Z,67.47
2018-12-29T13:40:27.974Z,67.86
2018-12-29T13:42:58.127Z,67.70
2018-12-29T13:45:28.027Z,67.62
2018-12-29T13:47:58.240Z,67.63
2018-12-29T13:50:28.398Z,67.56
2018-12-29T13:52:58.302Z,67.70
2018-12-29T13:55:28.201Z,67.53
2018-12-29T13:57:58.407Z,67.60
2018-12-29T14:00:28.613Z,67.65
2018-12-29T14:02:58.499Z,67.76
2018-12-29T14:05:28.507Z,68.27
2018-12-29T14:07:58.679Z,68.26
2018-12-29T14:10:28.856Z,67.48
2018-12-29T14:12:58.722Z,66.48
2018-12-29T14:15:28.959Z,66.64
2018-12-29T14:17:58.872Z,67.22
2018-12-29T14:20:29.092Z,66.86
2018-12-29T14:22:59.310Z,65.75
2018-12-29T14:25:29.566Z,65.69
2018-12-29T14:28:00.063Z,65.85
2018-12-29T14:30:30.294Z,66.07
2018-12-29T14:33:00.504Z,66.86
2018-12-29T14:35:30.379Z,67.13
2018-12-29T14:38:00.657Z,67.68
2018-12-29T14:40:31.007Z,67.65
2018-12-29T14:43:01.116Z,67.77
2018-12-29T14:45:30.982Z,67.87
2018-12-29T14:48:01.227Z,67.41
2018-12-29T14:50:31.118Z,67.72
2018-12-29T14:53:01.064Z,67.54
2018-12-29T14:55:31.299Z,67.70
2018-12-29T14:58:01.782Z,67.86
2018-12-29T15:00:32.340Z,68.03
2018-12-29T15:03:02.542Z,68.31
2018-12-29T15:05:32.458Z,68.28
2018-12-29T15:08:03.393Z,68.25
2018-12-29T15:10:33.568Z,68.28
2018-12-29T15:13:03.451Z,68.28
2018-12-29T15:15:33.656Z,68.43
2018-12-29T15:18:03.828Z,68.13
2018-12-29T15:20:34.574Z,68.21
2018-12-29T15:23:04.744Z,68.28
2018-12-29T15:25:34.977Z,68.22
2018-12-29T15:28:05.500Z,68.26
2018-12-29T15:30:36.018Z,68.44
2018-12-29T15:33:05.988Z,68.97
2018-12-29T15:35:36.278Z,69.32
2018-12-29T15:38:06.545Z,69.37
2018-12-29T15:40:36.590Z,70.98
2018-12-29T15:43:06.852Z,69.50
2018-12-29T15:45:37.469Z,69.67
2018-12-29T15:48:07.554Z,69.41
2018-12-29T15:50:37.535Z,69.26
2018-12-29T15:53:08.363Z,69.30
2018-12-29T15:55:38.726Z,69.01
2018-12-29T16:01:56.862Z,69.20
2018-12-29T16:04:27.122Z,68.99
2018-12-29T16:06:57.372Z,68.83
2018-12-29T16:09:27.916Z,68.98
2018-12-29T16:11:58.352Z,69.22
2018-12-29T16:14:35.249Z,69.53
2018-12-29T16:16:59.853Z,69.64
2018-12-29T16:19:29.997Z,69.92
2018-12-29T16:21:59.905Z,70.30
2018-12-29T16:24:30.145Z,70.75
2018-12-29T16:27:00.673Z,71.04
2018-12-29T16:29:30.815Z,71.34
2018-12-29T16:32:01.062Z,71.12
2018-12-29T16:34:31.045Z,71.17
2018-12-29T16:37:00.983Z,71.14
2018-12-29T16:39:31.883Z,71.19
2018-12-29T16:42:01.820Z,71.08
2018-12-29T16:44:31.707Z,70.91
2018-12-29T16:47:01.837Z,71.27
2018-12-29T16:49:32.125Z,71.15
2018-12-29T16:52:02.028Z,71.06
2018-12-29T16:54:32.297Z,70.58
2018-12-29T16:57:02.193Z,70.64
2018-12-29T16:59:34.695Z,70.69
2018-12-29T17:02:04.880Z,70.94
2018-12-29T17:04:34.829Z,71.04
2018-12-29T17:07:05.057Z,71.04
2018-12-29T17:09:35.315Z,71.08
2018-12-29T17:12:06.025Z,71.50
2018-12-29T17:14:36.754Z,71.11
2018-12-29T17:17:06.623Z,71.15
2018-12-29T17:19:36.922Z,71.12
2018-12-29T17:22:06.852Z,71.13
2018-12-29T17:24:36.756Z,71.34
2018-12-29T17:27:06.949Z,70.98
2018-12-29T17:29:37.255Z,71.00
2018-12-29T17:32:07.473Z,71.08
2018-12-29T17:34:37.403Z,71.23
2018-12-29T17:37:07.324Z,71.80
2018-12-29T17:39:38.374Z,72.31
2018-12-29T17:42:08.469Z,73.48
2018-12-29T17:44:38.667Z,74.45
2018-12-29T17:47:08.749Z,74.84
2018-12-29T17:49:38.907Z,75.04
2018-12-29T17:52:09.154Z,75.53
2018-12-29T17:54:39.349Z,75.73
2018-12-29T17:57:09.203Z,75.93
2018-12-29T17:59:39.077Z,76.12
2018-12-29T18:02:09.642Z,76.22
2018-12-29T18:04:39.787Z,76.03
2018-12-29T18:07:09.664Z,75.90
2018-12-29T18:09:39.577Z,75.81
2018-12-29T18:12:09.536Z,76.05
2018-12-29T18:14:39.394Z,76.41
2018-12-29T18:17:09.488Z,76.56
2018-12-29T18:19:40.578Z,76.74
2018-12-29T18:22:11.109Z,76.96
2018-12-29T18:24:41.409Z,77.19
2018-12-29T18:27:11.866Z,77.33
2018-12-29T18:29:42.132Z,77.36
2018-12-29T18:32:12.397Z,77.54
2018-12-29T18:34:42.976Z,77.63
2018-12-29T18:37:15.427Z,77.59
2018-12-29T18:39:45.204Z,77.29
2018-12-29T18:42:15.357Z,77.26
2018-12-29T18:44:45.696Z,77.16
2018-12-29T18:47:19.760Z,77.07
2018-12-29T18:49:50.109Z,77.09
2018-12-29T18:52:20.141Z,77.11
2018-12-29T18:54:50.439Z,77.04
2018-12-29T18:57:20.964Z,76.43
2018-12-29T18:59:51.087Z,75.79
2018-12-29T19:02:21.711Z,75.42
2018-12-29T19:04:52.365Z,74.79
2018-12-29T19:07:22.796Z,74.34
2018-12-29T19:09:52.948Z,73.72
2018-12-29T19:12:22.928Z,72.88
2018-12-29T19:14:53.528Z,72.17
2018-12-29T19:17:23.487Z,72.40
2018-12-29T19:19:54.950Z,72.14
2018-12-29T19:22:25.012Z,71.97
2018-12-29T19:24:55.634Z,71.99
2018-12-29T19:27:25.521Z,71.80
2018-12-29T19:29:55.484Z,71.38
2018-12-29T19:32:26.346Z,71.15
2018-12-29T19:34:56.869Z,71.29
2018-12-29T19:37:33.814Z,71.69
2018-12-29T19:40:03.997Z,71.25
2018-12-29T19:42:35.347Z,71.25
2018-12-29T19:45:05.719Z,71.26
2018-12-29T19:47:35.784Z,71.04
2018-12-29T19:50:06.883Z,71.04
2018-12-29T19:52:37.435Z,71.12
2018-12-29T19:55:07.529Z,71.06
2018-12-29T19:57:37.763Z,71.28
2018-12-29T20:00:10.493Z,71.35
2018-12-29T20:02:40.717Z,71.13
2018-12-29T20:05:11.697Z,70.92
2018-12-29T20:07:41.702Z,71.01
2018-12-29T20:10:12.101Z,71.42
2018-12-29T20:12:42.404Z,71.72
2018-12-29T20:15:12.662Z,71.59
2018-12-29T20:17:42.631Z,71.55
2018-12-29T20:20:12.606Z,71.70
2018-12-29T20:22:42.523Z,71.80
2018-12-29T20:25:12.764Z,72.15
2018-12-29T20:27:42.678Z,72.33
2018-12-29T20:30:12.685Z,72.48
2018-12-29T20:32:42.806Z,72.65
2018-12-29T20:35:12.884Z,72.31
2018-12-29T20:37:43.359Z,72.32
2018-12-29T20:40:14.212Z,72.42
2018-12-29T20:42:44.465Z,72.32
2018-12-29T20:45:14.758Z,72.44
2018-12-29T20:47:44.832Z,72.66
2018-12-29T20:50:15.069Z,72.86
2018-12-29T20:52:45.180Z,73.22
2018-12-29T20:55:15.427Z,73.51
2018-12-29T20:57:45.603Z,74.04
2018-12-29T21:00:15.860Z,74.29
2018-12-29T21:02:46.004Z,74.73
2018-12-29T21:05:16.853Z,74.55
2018-12-29T21:07:46.799Z,74.33
2018-12-29T21:10:17.402Z,74.21
2018-12-29T21:12:47.711Z,73.73
2018-12-29T21:15:18.147Z,73.83
2018-12-29T21:17:48.147Z,73.98
2018-12-29T21:20:18.498Z,73.89
2018-12-29T21:22:48.674Z,73.83
2018-12-29T21:25:20.192Z,73.68
2018-12-29T21:27:50.393Z,73.54
2018-12-29T21:30:20.805Z,73.45
2018-12-29T21:32:51.422Z,72.90
2018-12-29T21:35:22.712Z,73.06
2018-12-29T21:37:52.985Z,73.23
2018-12-29T21:40:22.905Z,73.20
2018-12-29T21:42:54.368Z,73.25
2018-12-29T21:45:24.509Z,73.36
2018-12-29T21:47:54.811Z,73.50
2018-12-29T21:50:25.789Z,73.62
2018-12-29T21:52:57.699Z,73.73
2018-12-29T21:55:28.129Z,73.80
2018-12-29T21:57:59.626Z,73.88
2018-12-29T22:00:29.481Z,74.07
2018-12-29T22:02:59.393Z,73.58
2018-12-29T22:05:29.673Z,73.48
2018-12-29T22:07:59.706Z,73.32
2018-12-29T22:10:30.012Z,73.26
2018-12-29T22:13:01.451Z,73.35
2018-12-29T22:15:33.950Z,73.54
2018-12-29T22:18:04.215Z,73.86
2018-12-29T22:20:35.245Z,74.23
2018-12-29T22:23:05.551Z,74.47
2018-12-29T22:25:35.782Z,75.01
2018-12-29T22:28:05.659Z,75.50
2018-12-29T22:30:35.838Z,75.99
2018-12-29T22:33:05.884Z,76.36
2018-12-29T22:35:35.924Z,76.71
2018-12-29T22:38:06.183Z,76.56
2018-12-29T22:40:36.768Z,76.54
2018-12-29T22:43:08.288Z,76.66
2018-12-29T22:45:38.263Z,76.71
2018-12-29T22:48:08.145Z,76.54
2018-12-29T22:50:41.172Z,76.21
2018-12-29T22:53:10.400Z,75.80
2018-12-29T22:55:40.928Z,75.61
2018-12-29T22:58:11.250Z,75.43
2018-12-29T23:00:42.664Z,75.45
2018-12-29T23:03:13.535Z,75.31
2018-12-29T23:05:43.432Z,75.48
2018-12-29T23:08:13.997Z,75.59
2018-12-29T23:10:43.912Z,75.83
2018-12-29T23:13:14.135Z,76.20
2018-12-29T23:15:44.105Z,76.56
2018-12-29T23:18:14.774Z,76.92
2018-12-29T23:20:49.110Z,77.46
2018-12-29T23:23:17.250Z,77.81
2018-12-29T23:25:49.728Z,77.97
2018-12-29T23:28:19.962Z,77.96
2018-12-29T23:30:49.867Z,77.86
2018-12-29T23:33:20.491Z,77.81
2018-12-29T23:35:50.420Z,77.78
2018-12-29T23:38:20.965Z,77.94
2018-12-29T23:40:50.849Z,78.12
2018-12-29T23:43:24.360Z,78.23
2018-12-29T23:45:54.989Z,78.25
2018-12-29T23:48:25.249Z,78.36
2018-12-29T23:51:05.231Z,78.56
2018-12-29T23:53:27.043Z,78.56
2018-12-29T23:55:57.727Z,78.57
2018-12-29T23:58:27.645Z,78.34
